createdAt,value
2023-05-02T00:01:04.883Z,37.60
2023-05-02T00:03:32.703Z,36.47
2023-05-02T00:06:00.416Z,36.90
2023-05-02T00:08:26.782Z,37.20
2023-05-02T00:10:53.165Z,37.97
2023-05-02T00:13:19.512Z,35.15
2023-05-02T00:15:46.035Z,32.95
2023-05-02T00:18:12.508Z,38.15
2023-05-02T00:20:40.011Z,33.85
2023-05-02T00:23:06.354Z,39.17
2023-05-02T00:25:32.704Z,30.85
2023-05-02T00:27:58.957Z,30.25
2023-05-02T00:30:25.255Z,30.45
2023-05-02T00:32:54.143Z,29.83
2023-05-02T00:35:20.599Z,36.45
2023-05-02T00:37:46.880Z,32.80
2023-05-02T00:40:13.425Z,29.75
2023-05-02T00:42:39.805Z,29.10
2023-05-02T00:45:06.882Z,35.80
2023-05-02T00:47:33.986Z,25.23
2023-05-02T00:50:01.406Z,32.72
2023-05-02T00:52:28.431Z,29.42
2023-05-02T00:54:54.798Z,28.35
2023-05-02T00:57:21.415Z,25.30
2023-05-02T00:59:47.825Z,31.65
2023-05-02T01:02:30.768Z,23.23
2023-05-02T01:05:11.421Z,20.63
2023-05-02T01:07:56.547Z,15.98
2023-05-02T01:10:23.480Z,14.13
2023-05-02T01:12:57.849Z,19.40
2023-05-02T01:15:24.644Z,17.95
2023-05-02T01:17:52.313Z,17.80
2023-05-02T01:20:21.633Z,16.67
2023-05-02T01:22:48.201Z,15.65
2023-05-02T01:25:14.723Z,14.52
2023-05-02T01:27:59.732Z,12.18
2023-05-02T01:30:28.313Z,10.75
2023-05-02T01:32:55.960Z,13.52
2023-05-02T01:35:23.333Z,9.05
2023-05-02T01:37:50.011Z,13.60
2023-05-02T01:40:18.374Z,9.52
2023-05-02T01:42:45.957Z,11.32
2023-05-02T01:45:12.778Z,8.30
2023-05-02T01:47:40.300Z,8.75
2023-05-02T01:50:11.409Z,7.10
2023-05-02T01:52:38.518Z,7.50
2023-05-02T01:55:06.375Z,6.75
2023-05-02T01:57:32.644Z,11.15
2023-05-02T01:59:59.627Z,8.02
2023-05-02T02:02:29.842Z,10.52
2023-05-02T02:04:56.621Z,6.00
2023-05-02T02:07:23.308Z,12.70
2023-05-02T02:09:49.684Z,13.02
2023-05-02T02:12:17.495Z,11.52
2023-05-02T02:14:46.450Z,10.15
2023-05-02T02:17:15.226Z,11.00
2023-05-02T02:19:42.303Z,9.15
2023-05-02T02:22:09.717Z,7.57
2023-05-02T02:24:37.733Z,13.10
2023-05-02T02:27:04.068Z,9.20
2023-05-02T02:29:30.657Z,11.02
2023-05-02T02:31:57.014Z,6.43
2023-05-02T02:34:23.400Z,10.93
2023-05-02T02:36:49.653Z,9.25
2023-05-02T02:39:35.007Z,11.85
2023-05-02T02:42:20.300Z,6.38
2023-05-02T02:44:51.253Z,7.20
2023-05-02T02:47:17.544Z,10.02
2023-05-02T02:49:47.736Z,8.43
2023-05-02T02:52:33.096Z,10.88
2023-05-02T02:55:00.549Z,10.25
2023-05-02T02:57:30.644Z,4.55
2023-05-02T03:00:05.773Z,6.00
2023-05-02T03:02:32.763Z,7.68
2023-05-02T03:05:00.209Z,7.65
2023-05-02T03:07:29.797Z,8.93
2023-05-02T03:09:56.135Z,5.82
2023-05-02T03:12:22.756Z,8.02
2023-05-02T03:14:49.365Z,10.98
2023-05-02T03:17:15.707Z,6.38
2023-05-02T03:19:42.153Z,8.63
2023-05-02T03:22:08.500Z,7.10
2023-05-02T03:24:34.795Z,13.85
2023-05-02T03:27:01.152Z,8.70
2023-05-02T03:29:28.670Z,7.95
2023-05-02T03:31:55.131Z,5.57
2023-05-02T03:34:22.313Z,6.95
2023-05-02T03:36:49.135Z,6.22
2023-05-02T03:39:15.573Z,7.80
2023-05-02T03:41:42.383Z,5.22
2023-05-02T03:44:08.749Z,8.90
2023-05-02T03:46:35.098Z,7.72
2023-05-02T03:49:01.431Z,7.45
2023-05-02T03:51:27.800Z,10.73
2023-05-02T03:53:54.804Z,11.18
2023-05-02T03:56:21.325Z,8.80
2023-05-02T03:58:48.630Z,7.57
2023-05-02T04:01:17.334Z,11.95
2023-05-02T04:03:43.719Z,11.65
2023-05-02T04:06:10.399Z,7.38
2023-05-02T04:08:37.159Z,7.68
2023-05-02T04:11:03.653Z,15.75
2023-05-02T04:13:30.194Z,8.00
2023-05-02T04:15:56.537Z,10.43
2023-05-02T04:18:22.891Z,8.38
2023-05-02T04:20:50.229Z,7.60
2023-05-02T04:23:17.596Z,9.57
2023-05-02T04:25:53.980Z,8.40
2023-05-02T04:28:23.962Z,6.13
2023-05-02T04:30:50.479Z,8.40
2023-05-02T04:33:18.429Z,10.38
2023-05-02T04:35:44.787Z,11.57
2023-05-02T04:38:11.145Z,8.82
2023-05-02T04:40:37.487Z,7.57
2023-05-02T04:43:03.749Z,9.77
2023-05-02T04:45:30.165Z,11.68
2023-05-02T04:47:56.842Z,8.70
2023-05-02T04:50:23.141Z,15.00
2023-05-02T04:52:49.592Z,9.65
2023-05-02T04:55:15.882Z,8.68
2023-05-02T04:57:42.220Z,8.25
2023-05-02T05:00:08.675Z,8.35
2023-05-02T05:02:35.006Z,7.15
2023-05-02T05:05:02.104Z,8.80
2023-05-02T05:07:28.439Z,13.70
2023-05-02T05:09:54.883Z,10.77
2023-05-02T05:12:21.147Z,7.85
2023-05-02T05:14:47.767Z,11.27
2023-05-02T05:17:14.618Z,15.73
2023-05-02T05:19:40.964Z,12.73
2023-05-02T05:22:07.570Z,9.32
2023-05-02T05:24:34.197Z,8.20
2023-05-02T05:27:00.505Z,9.68
2023-05-02T05:29:26.796Z,10.70
2023-05-02T05:31:53.132Z,11.88
2023-05-02T05:34:19.421Z,8.02
2023-05-02T05:36:45.820Z,13.30
2023-05-02T05:39:13.219Z,9.90
2023-05-02T05:41:39.493Z,10.82
2023-05-02T05:44:05.817Z,14.77
2023-05-02T05:46:32.242Z,13.48
2023-05-02T05:48:58.584Z,12.93
2023-05-02T05:51:24.867Z,15.25
2023-05-02T05:53:51.897Z,7.95
2023-05-02T05:56:18.251Z,10.75
2023-05-02T05:58:44.729Z,12.38
2023-05-02T06:01:11.847Z,9.23
2023-05-02T06:03:38.231Z,9.30
2023-05-02T06:06:04.868Z,12.05
2023-05-02T06:08:31.345Z,12.13
2023-05-02T06:10:57.688Z,14.00
2023-05-02T06:13:24.067Z,9.52
2023-05-02T06:15:50.467Z,14.55
2023-05-02T06:18:17.039Z,10.07
2023-05-02T06:20:43.621Z,12.90
2023-05-02T06:23:09.926Z,20.35
2023-05-02T06:25:39.118Z,11.00
2023-05-02T06:28:05.985Z,8.27
2023-05-02T06:30:32.384Z,9.85
2023-05-02T06:32:58.829Z,11.13
2023-05-02T06:35:25.295Z,11.32
2023-05-02T06:37:51.592Z,12.07
2023-05-02T06:40:20.308Z,12.38
2023-05-02T06:42:46.988Z,14.85
2023-05-02T06:45:13.282Z,7.63
2023-05-02T06:47:39.728Z,10.02
2023-05-02T06:50:06.359Z,13.25
2023-05-02T06:52:32.804Z,22.55
2023-05-02T06:54:59.158Z,20.63
2023-05-02T06:57:25.497Z,15.95
2023-05-02T06:59:51.760Z,9.57
2023-05-02T07:02:18.138Z,9.07
2023-05-02T07:04:44.693Z,7.65
2023-05-02T07:07:11.118Z,12.50
2023-05-02T07:09:37.422Z,12.85
2023-05-02T07:12:06.644Z,9.25
2023-05-02T07:14:33.235Z,8.48
2023-05-02T07:16:59.593Z,9.77
2023-05-02T07:19:28.935Z,11.50
2023-05-02T07:21:55.305Z,10.43
2023-05-02T07:24:21.637Z,9.50
2023-05-02T07:26:48.023Z,64.38
2023-05-02T07:29:14.320Z,14.35
2023-05-02T07:31:40.700Z,9.38
2023-05-02T07:34:07.001Z,19.33
2023-05-02T07:36:33.291Z,7.93
2023-05-02T07:38:59.624Z,10.60
2023-05-02T07:41:25.946Z,7.57
2023-05-02T07:43:52.312Z,11.32
2023-05-02T07:46:18.760Z,8.38
2023-05-02T07:48:45.151Z,17.20
2023-05-02T07:51:11.554Z,16.15
2023-05-02T07:53:37.878Z,9.52
2023-05-02T07:56:06.742Z,12.85
2023-05-02T07:58:33.100Z,9.38
2023-05-02T08:00:59.468Z,10.13
2023-05-02T08:03:26.923Z,12.65
2023-05-02T08:05:53.852Z,8.30
2023-05-02T08:08:20.211Z,11.68
2023-05-02T08:10:46.629Z,9.07
2023-05-02T08:13:13.037Z,9.63
2023-05-02T08:15:39.569Z,7.07
2023-05-02T08:18:06.184Z,8.60
2023-05-02T08:20:32.592Z,10.15
2023-05-02T08:23:00.051Z,6.65
2023-05-02T08:25:26.751Z,7.70
2023-05-02T08:27:53.497Z,7.30
2023-05-02T08:30:19.849Z,11.07
2023-05-02T08:32:46.468Z,5.68
2023-05-02T08:35:12.927Z,7.35
2023-05-02T08:37:39.516Z,6.45
2023-05-02T08:40:06.373Z,12.70
2023-05-02T08:42:33.357Z,7.80
2023-05-02T08:45:00.818Z,8.30
2023-05-02T08:47:27.484Z,5.78
2023-05-02T08:49:55.200Z,4.43
2023-05-02T08:52:22.097Z,7.57
2023-05-02T08:54:49.369Z,8.27
2023-05-02T08:57:15.685Z,7.90
2023-05-02T08:59:42.551Z,9.10
2023-05-02T09:02:16.380Z,8.45
2023-05-02T09:04:43.110Z,9.82
2023-05-02T09:07:10.896Z,5.25
2023-05-02T09:12:12.738Z,8.13
2023-05-02T09:14:39.268Z,4.55
2023-05-02T09:17:05.682Z,6.15
2023-05-02T09:19:32.046Z,5.60
2023-05-02T09:22:01.620Z,5.05
2023-05-02T09:24:28.415Z,6.15
2023-05-02T09:27:04.966Z,4.60
2023-05-02T09:29:36.504Z,5.38
2023-05-02T09:32:03.956Z,8.30
2023-05-02T09:34:31.324Z,5.45
2023-05-02T09:36:58.365Z,8.70
2023-05-02T09:39:26.454Z,9.13
2023-05-02T09:44:38.069Z,5.72
2023-05-02T09:47:06.599Z,7.32
2023-05-02T09:49:40.517Z,6.22
2023-05-02T09:52:10.428Z,5.88
2023-05-02T09:54:37.307Z,4.70
2023-05-02T09:57:03.899Z,9.23
2023-05-02T09:59:30.699Z,8.07
2023-05-02T10:01:58.370Z,6.72
2023-05-02T10:04:25.458Z,5.57
2023-05-02T10:06:53.029Z,8.10
2023-05-02T10:09:21.604Z,7.03
2023-05-02T10:11:51.450Z,7.10
2023-05-02T10:14:19.439Z,7.28
2023-05-02T10:16:51.602Z,8.05
2023-05-02T10:19:23.182Z,7.40
2023-05-02T10:21:49.641Z,6.65
2023-05-02T10:24:16.858Z,7.80
2023-05-02T10:26:43.636Z,6.40
2023-05-02T10:29:10.786Z,6.05
2023-05-02T10:31:39.654Z,8.10
2023-05-02T10:34:07.101Z,5.85
2023-05-02T10:36:33.716Z,5.85
2023-05-02T10:39:00.917Z,6.07
2023-05-02T10:41:29.034Z,7.10
2023-05-02T10:43:57.748Z,9.25
2023-05-02T10:46:30.282Z,5.57
2023-05-02T10:49:09.615Z,8.05
2023-05-02T10:51:36.840Z,4.57
2023-05-02T10:54:22.081Z,5.53
2023-05-02T10:57:04.298Z,8.25
2023-05-02T10:59:40.628Z,8.73
2023-05-02T11:02:26.082Z,7.15
2023-05-02T11:05:00.104Z,8.57
2023-05-02T11:07:26.793Z,9.00
2023-05-02T11:09:53.099Z,8.20
2023-05-02T11:12:38.071Z,7.85
2023-05-02T11:15:05.286Z,5.22
2023-05-02T11:17:51.588Z,12.45
2023-05-02T11:20:21.262Z,5.72
2023-05-02T11:22:47.651Z,11.70
2023-05-02T11:25:33.713Z,10.30
2023-05-02T11:28:00.348Z,10.73
2023-05-02T11:30:42.030Z,19.15
2023-05-02T11:33:08.607Z,9.57
2023-05-02T11:35:35.979Z,9.27
2023-05-02T11:38:03.293Z,11.65
2023-05-02T11:40:29.975Z,9.82
2023-05-02T11:42:57.367Z,5.13
2023-05-02T11:45:33.298Z,10.13
2023-05-02T11:47:59.724Z,8.32
2023-05-02T11:50:27.604Z,6.65
2023-05-02T11:52:54.011Z,12.00
2023-05-02T11:55:20.315Z,8.70
2023-05-02T11:57:46.802Z,10.55
2023-05-02T12:00:13.431Z,10.88
2023-05-02T12:02:41.176Z,6.72
2023-05-02T12:05:08.389Z,14.23
2023-05-02T12:07:41.143Z,11.10
2023-05-02T12:10:07.971Z,10.05
2023-05-02T12:12:34.607Z,12.90
2023-05-02T12:15:04.737Z,7.97
2023-05-02T12:17:31.800Z,9.38
2023-05-02T12:19:58.834Z,6.68
2023-05-02T12:22:25.833Z,12.80
2023-05-02T12:24:53.842Z,11.18
2023-05-02T12:27:20.262Z,12.38
2023-05-02T12:29:49.732Z,10.98
2023-05-02T12:32:27.611Z,10.23
2023-05-02T12:34:54.597Z,6.68
2023-05-02T12:37:24.538Z,7.50
2023-05-02T12:39:50.909Z,9.10
2023-05-02T12:42:17.771Z,10.30
2023-05-02T12:44:45.557Z,8.00
2023-05-02T12:47:13.116Z,6.35
2023-05-02T12:49:49.866Z,9.50
2023-05-02T12:52:17.006Z,8.32
2023-05-02T12:54:44.487Z,6.70
2023-05-02T12:57:11.160Z,7.60
2023-05-02T12:59:37.733Z,7.93
2023-05-02T13:02:04.326Z,7.90
2023-05-02T13:04:41.268Z,7.50
2023-05-02T13:07:07.913Z,8.77
2023-05-02T13:09:34.366Z,6.68
2023-05-02T13:12:00.950Z,9.35
2023-05-02T13:14:27.304Z,5.30
2023-05-02T13:16:55.110Z,10.43
2023-05-02T13:19:22.171Z,8.20
2023-05-02T13:21:48.754Z,6.97
2023-05-02T13:24:17.295Z,9.52
2023-05-02T13:26:44.053Z,8.02
2023-05-02T13:29:11.807Z,7.78
2023-05-02T13:31:38.428Z,7.40
2023-05-02T13:34:05.284Z,7.13
2023-05-02T13:36:31.645Z,8.18
2023-05-02T13:38:58.044Z,10.15
2023-05-02T13:41:27.098Z,5.50
2023-05-02T13:43:53.915Z,7.90
2023-05-02T13:46:20.249Z,8.98
2023-05-02T13:48:46.546Z,7.00
2023-05-02T13:51:12.932Z,7.10
2023-05-02T13:53:39.231Z,5.40
2023-05-02T13:56:05.755Z,5.20
2023-05-02T13:58:32.071Z,7.05
2023-05-02T14:00:58.475Z,5.82
2023-05-02T14:03:24.980Z,8.00
2023-05-02T14:05:51.404Z,6.00
2023-05-02T14:08:19.122Z,6.80
2023-05-02T14:10:45.526Z,6.45
2023-05-02T14:13:11.848Z,5.82
2023-05-02T14:15:38.177Z,5.93
2023-05-02T14:18:04.670Z,4.90
2023-05-02T14:20:30.960Z,7.65
2023-05-02T14:22:57.376Z,5.68
2023-05-02T14:25:23.662Z,11.35
2023-05-02T14:27:50.441Z,5.03
2023-05-02T14:30:16.808Z,5.88
2023-05-02T14:32:43.131Z,8.68
2023-05-02T14:35:09.590Z,7.43
2023-05-02T14:37:35.867Z,5.07
2023-05-02T14:40:02.475Z,6.50
2023-05-02T14:42:29.189Z,6.05
2023-05-02T14:44:57.399Z,6.38
2023-05-02T14:47:25.477Z,5.30
2023-05-02T14:49:52.598Z,6.50
2023-05-02T14:52:18.957Z,6.82
2023-05-02T14:54:45.396Z,6.55
2023-05-02T14:57:11.671Z,7.38
2023-05-02T14:59:38.782Z,8.48
2023-05-02T15:02:05.134Z,7.82
2023-05-02T15:04:31.702Z,6.47
2023-05-02T15:06:59.743Z,8.18
2023-05-02T15:09:26.725Z,3.90
2023-05-02T15:11:53.343Z,6.13
2023-05-02T15:14:19.760Z,7.35
2023-05-02T15:16:46.070Z,5.85
2023-05-02T15:19:12.412Z,4.88
2023-05-02T15:21:38.791Z,5.60
2023-05-02T15:24:05.868Z,8.65
2023-05-02T15:26:32.370Z,7.55
2023-05-02T15:28:58.706Z,6.90
2023-05-02T15:31:25.228Z,5.78
2023-05-02T15:33:51.628Z,6.90
2023-05-02T15:36:18.025Z,7.38
2023-05-02T15:38:44.376Z,4.05
2023-05-02T15:41:11.539Z,3.80
2023-05-02T15:43:38.157Z,4.70
2023-05-02T15:46:04.851Z,5.20
2023-05-02T15:48:34.704Z,5.30
2023-05-02T15:51:02.386Z,5.15
2023-05-02T15:53:28.958Z,4.90
2023-05-02T15:55:55.269Z,4.47
2023-05-02T15:58:21.619Z,6.57
2023-05-02T16:00:48.177Z,7.13
2023-05-02T16:03:15.653Z,5.82
2023-05-02T16:05:42.068Z,5.18
2023-05-02T16:08:08.455Z,7.50
2023-05-02T16:10:36.580Z,9.40
2023-05-02T16:13:03.100Z,8.23
2023-05-02T16:15:30.344Z,8.63
2023-05-02T16:17:57.383Z,8.13
2023-05-02T16:20:23.920Z,7.47
2023-05-02T16:22:50.314Z,5.32
2023-05-02T16:25:17.001Z,6.80
2023-05-02T16:27:43.407Z,8.38
2023-05-02T16:30:09.922Z,6.68
2023-05-02T16:32:37.304Z,4.00
2023-05-02T16:35:05.284Z,6.05
2023-05-02T16:37:33.003Z,6.90
2023-05-02T16:39:59.367Z,4.32
2023-05-02T16:42:25.940Z,4.97
2023-05-02T16:44:52.274Z,5.72
2023-05-02T16:47:18.931Z,4.10
2023-05-02T16:49:45.303Z,4.85
2023-05-02T16:52:11.742Z,8.02
2023-05-02T16:54:39.484Z,7.20
2023-05-02T16:57:05.773Z,4.70
2023-05-02T16:59:32.078Z,6.93
2023-05-02T17:01:58.595Z,3.80
2023-05-02T17:04:24.940Z,5.65
2023-05-02T17:06:54.062Z,4.13
2023-05-02T17:09:20.508Z,6.25
2023-05-02T17:11:46.840Z,4.22
2023-05-02T17:14:13.770Z,5.82
2023-05-02T17:16:40.897Z,5.95
2023-05-02T17:19:07.254Z,3.70
2023-05-02T17:21:33.581Z,6.45
2023-05-02T17:24:00.112Z,4.82
2023-05-02T17:26:26.443Z,4.60
2023-05-02T17:28:53.713Z,6.25
2023-05-02T17:31:20.533Z,5.25
2023-05-02T17:33:47.642Z,4.32
2023-05-02T17:36:14.356Z,4.35
2023-05-02T17:38:41.790Z,5.20
2023-05-02T17:41:08.122Z,4.15
2023-05-02T17:43:34.699Z,4.18
2023-05-02T17:46:07.532Z,4.30
2023-05-02T17:48:36.195Z,5.72
2023-05-02T17:51:04.164Z,4.30
2023-05-02T17:53:31.372Z,5.43
2023-05-02T17:55:57.924Z,4.95
2023-05-02T17:58:26.408Z,7.60
2023-05-02T18:00:52.776Z,5.07
2023-05-02T18:03:19.748Z,7.57
2023-05-02T18:05:47.672Z,6.63
2023-05-02T18:08:14.264Z,5.85
2023-05-02T18:10:41.573Z,5.90
2023-05-02T18:13:08.378Z,5.18
2023-05-02T18:15:34.712Z,6.38
2023-05-02T18:18:01.075Z,3.80
2023-05-02T18:20:27.433Z,3.85
2023-05-02T18:22:57.328Z,3.97
2023-05-02T18:25:23.793Z,5.27
2023-05-02T18:27:51.246Z,4.80
2023-05-02T18:30:17.613Z,3.42
2023-05-02T18:32:43.937Z,3.25
2023-05-02T18:35:13.242Z,4.32
2023-05-02T18:37:39.528Z,5.30
2023-05-02T18:40:06.102Z,5.35
2023-05-02T18:42:32.388Z,4.00
2023-05-02T18:44:58.703Z,5.88
2023-05-02T18:47:25.022Z,4.85
2023-05-02T18:49:51.552Z,3.25
2023-05-02T18:52:17.922Z,3.03
2023-05-02T18:54:44.267Z,4.78
2023-05-02T18:57:11.104Z,4.80
2023-05-02T18:59:37.539Z,4.43
2023-05-02T19:02:03.924Z,4.35
2023-05-02T19:04:31.433Z,5.95
2023-05-02T19:06:57.761Z,4.97
2023-05-02T19:09:24.213Z,5.25
2023-05-02T19:11:50.755Z,4.57
2023-05-02T19:14:17.080Z,4.38
2023-05-02T19:16:43.488Z,5.43
2023-05-02T19:19:09.922Z,4.68
2023-05-02T19:21:36.349Z,9.30
2023-05-02T19:24:03.827Z,3.33
2023-05-02T19:26:30.550Z,3.35
2023-05-02T19:28:57.346Z,4.53
2023-05-02T19:31:23.899Z,5.35
2023-05-02T19:33:51.715Z,4.50
2023-05-02T19:36:22.549Z,4.55
2023-05-02T19:41:17.071Z,3.90
2023-05-02T19:43:43.845Z,6.18
2023-05-02T19:46:10.476Z,6.00
2023-05-02T19:48:37.076Z,6.35
2023-05-02T19:51:04.142Z,5.32
2023-05-02T19:53:31.045Z,4.80
2023-05-02T19:55:58.713Z,4.03
2023-05-02T19:58:25.544Z,6.18
2023-05-02T20:00:52.352Z,4.75
2023-05-02T20:03:19.129Z,4.82
2023-05-02T20:05:45.566Z,11.18
2023-05-02T20:08:11.961Z,5.55
2023-05-02T20:10:39.381Z,5.47
2023-05-02T20:13:05.807Z,4.93
2023-05-02T20:15:32.133Z,3.60
2023-05-02T20:17:58.800Z,6.63
2023-05-02T20:20:25.201Z,5.85
2023-05-02T20:22:51.719Z,3.33
2023-05-02T20:25:18.057Z,5.78
2023-05-02T20:27:44.539Z,5.68
2023-05-02T20:30:11.145Z,6.97
2023-05-02T20:32:37.720Z,4.05
2023-05-02T20:35:04.268Z,7.78
2023-05-02T20:37:30.696Z,7.68
2023-05-02T20:39:57.125Z,4.85
2023-05-02T20:42:26.907Z,4.18
2023-05-02T20:44:55.150Z,5.95
2023-05-02T20:47:22.475Z,5.30
2023-05-02T20:49:49.041Z,5.22
2023-05-02T20:52:15.800Z,5.68
2023-05-02T20:54:43.463Z,3.08
2023-05-02T20:57:10.273Z,3.72
2023-05-02T20:59:36.568Z,6.72
2023-05-02T21:02:03.243Z,4.53
2023-05-02T21:04:29.789Z,6.47
2023-05-02T21:06:56.902Z,5.45
2023-05-02T21:09:23.907Z,5.45
2023-05-02T21:11:50.428Z,4.97
2023-05-02T21:14:16.812Z,5.70
2023-05-02T21:16:43.182Z,4.90
2023-05-02T21:19:09.534Z,7.68
2023-05-02T21:21:36.020Z,3.78
2023-05-02T21:24:03.844Z,5.32
2023-05-02T21:26:33.234Z,5.55
2023-05-02T21:28:59.980Z,6.63
2023-05-02T21:31:26.619Z,4.47
2023-05-02T21:33:53.247Z,6.20
2023-05-02T21:36:19.759Z,4.20
2023-05-02T21:38:46.078Z,4.75
2023-05-02T21:41:12.529Z,6.70
2023-05-02T21:43:39.622Z,3.92
2023-05-02T21:46:06.159Z,6.68
2023-05-02T21:48:33.277Z,4.70
2023-05-02T21:50:59.708Z,6.40
2023-05-02T21:53:27.085Z,4.43
2023-05-02T21:55:53.607Z,6.75
2023-05-02T21:58:20.024Z,6.55
2023-05-02T22:00:46.335Z,6.90
2023-05-02T22:03:12.791Z,5.45
2023-05-02T22:05:39.913Z,6.00
2023-05-02T22:08:09.801Z,5.03
2023-05-02T22:10:37.920Z,6.38
2023-05-02T22:13:04.805Z,5.40
2023-05-02T22:15:31.410Z,5.35
2023-05-02T22:17:58.454Z,6.25
2023-05-02T22:20:28.206Z,5.57
2023-05-02T22:22:54.760Z,6.28
2023-05-02T22:25:21.113Z,5.47
2023-05-02T22:27:47.558Z,6.15
2023-05-02T22:30:14.042Z,5.10
2023-05-02T22:32:41.288Z,4.85
2023-05-02T22:35:08.950Z,6.18
2023-05-02T22:37:35.312Z,4.57
2023-05-02T22:40:01.972Z,6.38
2023-05-02T22:42:28.534Z,5.45
2023-05-02T22:44:54.946Z,5.70
2023-05-02T22:47:21.791Z,6.32
2023-05-02T22:49:49.209Z,5.63
2023-05-02T22:52:15.717Z,8.13
2023-05-02T22:54:42.021Z,5.63
2023-05-02T22:57:08.359Z,5.45
2023-05-02T22:59:34.692Z,8.52
2023-05-02T23:02:01.267Z,5.05
2023-05-02T23:04:27.747Z,7.00
2023-05-02T23:06:54.502Z,5.82
2023-05-02T23:09:21.079Z,5.55
2023-05-02T23:14:28.583Z,7.18
2023-05-02T23:16:54.944Z,4.30
2023-05-02T23:19:21.311Z,6.05
2023-05-02T23:21:47.650Z,6.30
2023-05-02T23:24:14.053Z,4.50
2023-05-02T23:26:40.715Z,6.07
2023-05-02T23:29:07.073Z,4.78
2023-05-02T23:31:33.680Z,6.00
2023-05-02T23:34:00.357Z,5.95
2023-05-02T23:36:27.025Z,4.40
2023-05-02T23:38:53.328Z,5.28
2023-05-02T23:41:19.717Z,9.35
2023-05-02T23:43:46.093Z,5.13
2023-05-02T23:46:12.455Z,6.65
2023-05-02T23:48:38.735Z,5.03
2023-05-02T23:51:05.097Z,5.13
2023-05-02T23:53:31.415Z,4.00
2023-05-02T23:55:58.080Z,5.43
2023-05-02T23:58:24.410Z,5.53
